Time;durP1;ratioP1;P1;durP2;ratioP2;P2;SDS_P1;SDS_P2;PMS_P1;PMS_P2;Temp;Humidity;BMP_temperature;BMP_pressure;BME280_temperature;BME280_humidity;BME280_pressure;Samples;Min_cycle;Max_cycle;Signal;HPM_P1;HPM_P2
2024/01/01 00:00:17;;;;;;;64.87;35.80;;;;;;;;;;5054997;28;20535;-69
2024/01/01 00:02:46;;;;;;;63.40;33.07;;;;;;;;;;5039708;28;20437;-69
2024/01/01 00:05:12;;;;;;;59.43;32.50;;;;;;;;;;5056140;28;20540;-69
2024/01/01 00:07:39;;;;;;;57.37;32.43;;;;;;;;;;5039428;28;20433;-69
2024/01/01 00:10:06;;;;;;;57.07;31.03;;;;;;;;;;5057111;28;20504;-69
2024/01/01 00:12:33;;;;;;;49.20;26.70;;;;;;;;;;5056619;28;20479;-69
2024/01/01 00:15:17;;;;;;;51.57;27.30;;;;;;;;;;5056747;28;20421;-69
2024/01/01 00:17:44;;;;;;;45.10;23.70;;;;;;;;;;5055941;28;20896;-69
2024/01/01 00:20:11;;;;;;;46.33;25.10;;;;;;;;;;5055610;28;20981;-69
2024/01/01 00:22:38;;;;;;;53.77;25.93;;;;;;;;;;5056371;28;20447;-69
2024/01/01 00:25:04;;;;;;;44.60;22.93;;;;;;;;;;5055665;28;20456;-69
2024/01/01 00:27:35;;;;;;;47.43;23.37;;;;;;;;;;5055850;28;20510;-69
2024/01/01 00:30:01;;;;;;;43.77;22.90;;;;;;;;;;5055724;28;20433;-69
2024/01/01 00:32:28;;;;;;;44.03;21.77;;;;;;;;;;5055425;28;20452;-69
2024/01/01 00:34:55;;;;;;;41.00;20.47;;;;;;;;;;5056358;28;20425;-69
2024/01/01 00:37:24;;;;;;;39.03;20.13;;;;;;;;;;5055309;28;20745;-69
2024/01/01 00:39:51;;;;;;;37.50;19.53;;;;;;;;;;5039449;28;20421;-69
2024/01/01 00:42:18;;;;;;;45.57;20.47;;;;;;;;;;5057052;28;20427;-69
2024/01/01 00:44:44;;;;;;;44.10;20.10;;;;;;;;;;5056766;28;20830;-69
2024/01/01 00:47:11;;;;;;;42.87;20.17;;;;;;;;;;5055149;28;20547;-69
2024/01/01 00:49:38;;;;;;;42.67;20.77;;;;;;;;;;5054887;28;20464;-69
2024/01/01 00:52:05;;;;;;;43.53;21.97;;;;;;;;;;5038697;28;20919;-69
2024/01/01 00:54:32;;;;;;;49.73;22.30;;;;;;;;;;5055127;28;20742;-70
2024/01/01 00:57:16;;;;;;;47.60;22.47;;;;;;;;;;5027197;28;20460;-70
2024/01/01 00:59:43;;;;;;;44.57;21.47;;;;;;;;;;5055509;28;20425;-70
2024/01/01 01:02:10;;;;;;;39.00;19.87;;;;;;;;;;5038363;28;20445;-72
2024/01/01 01:04:37;;;;;;;40.47;19.37;;;;;;;;;;5055525;28;20444;-73
2024/01/01 01:07:09;;;;;;;43.27;20.40;;;;;;;;;;5056630;28;20726;-73
2024/01/01 01:09:35;;;;;;;40.83;20.63;;;;;;;;;;5055842;28;20420;-70
2024/01/01 01:12:02;;;;;;;40.33;20.27;;;;;;;;;;5054773;28;20990;-69
2024/01/01 01:49:57;;;;;;;37.37;17.97;;;;;;;;;;5054114;28;20405;-72
2024/01/01 01:52:24;;;;;;;42.83;21.40;;;;;;;;;;5037178;28;20464;-72
2024/01/01 01:54:51;;;;;;;44.03;20.40;;;;;;;;;;5054220;28;20449;-71
2024/01/01 01:57:18;;;;;;;40.47;19.10;;;;;;;;;;5037235;28;20453;-72
2024/01/01 02:00:04;;;;;;;41.27;19.63;;;;;;;;;;5040162;28;20480;-72
2024/01/01 02:02:37;;;;;;;38.17;18.33;;;;;;;;;;5047316;28;20450;-72
2024/01/01 02:05:04;;;;;;;39.97;18.80;;;;;;;;;;5055661;28;20417;-72
2024/01/01 02:07:32;;;;;;;40.93;19.63;;;;;;;;;;5054076;28;20440;-72
2024/01/01 02:09:59;;;;;;;36.93;18.50;;;;;;;;;;5036745;28;20446;-72
2024/01/01 02:12:26;;;;;;;40.20;19.23;;;;;;;;;;5053552;28;20453;-72
2024/01/01 02:14:52;;;;;;;38.80;18.67;;;;;;;;;;5070075;28;20463;-72
2024/01/01 02:17:19;;;;;;;36.83;18.33;;;;;;;;;;5070245;28;20429;-72
2024/01/01 02:19:46;;;;;;;35.63;19.53;;;;;;;;;;5054291;28;20908;-72
2024/01/01 02:22:13;;;;;;;38.57;19.17;;;;;;;;;;5069758;28;20531;-72
2024/01/01 02:24:39;;;;;;;39.20;20.10;;;;;;;;;;5053681;28;20888;-72
2024/01/01 02:27:06;;;;;;;35.67;18.23;;;;;;;;;;5069856;28;20436;-72
2024/01/01 02:29:33;;;;;;;39.90;18.23;;;;;;;;;;5036549;28;20445;-72
2024/01/01 02:31:59;;;;;;;32.70;17.83;;;;;;;;;;5052793;28;20489;-72
2024/01/01 02:34:27;;;;;;;35.53;17.67;;;;;;;;;;5053004;28;20469;-72
2024/01/01 02:36:55;;;;;;;35.87;18.60;;;;;;;;;;5053056;28;20413;-72
2024/01/01 02:39:21;;;;;;;37.00;18.73;;;;;;;;;;5036563;28;20503;-72
2024/01/01 02:41:48;;;;;;;37.53;18.83;;;;;;;;;;5053091;28;20409;-72
2024/01/01 02:44:17;;;;;;;35.13;18.30;;;;;;;;;;5052697;28;20441;-72
2024/01/01 02:46:44;;;;;;;39.03;17.77;;;;;;;;;;5054314;28;20425;-72
2024/01/01 02:49:11;;;;;;;36.70;18.23;;;;;;;;;;5053302;28;20931;-72
2024/01/01 02:51:41;;;;;;;34.43;17.73;;;;;;;;;;5046535;28;20489;-72
2024/01/01 02:54:08;;;;;;;40.37;18.63;;;;;;;;;;5074004;28;20448;-72
2024/01/01 02:56:35;;;;;;;39.50;18.20;;;;;;;;;;5072734;28;20447;-72
2024/01/01 02:59:01;;;;;;;37.93;17.57;;;;;;;;;;5056870;28;20822;-72
2024/01/01 03:01:28;;;;;;;35.87;18.50;;;;;;;;;;5072776;28;20426;-72
2024/01/01 03:03:55;;;;;;;35.83;17.73;;;;;;;;;;5056168;28;20438;-72
2024/01/01 03:06:22;;;;;;;38.27;17.80;;;;;;;;;;5072908;28;20552;-72
2024/01/01 03:08:49;;;;;;;36.50;18.43;;;;;;;;;;5074418;28;20775;-72
2024/01/01 03:11:33;;;;;;;34.27;18.30;;;;;;;;;;5064774;28;20416;-72
2024/01/01 03:14:00;;;;;;;32.20;17.33;;;;;;;;;;5053262;28;20460;-72
2024/01/01 03:16:26;;;;;;;30.87;16.73;;;;;;;;;;5054883;28;20809;-72
2024/01/01 03:18:53;;;;;;;33.90;18.77;;;;;;;;;;5054533;28;20762;-72
2024/01/01 03:21:20;;;;;;;37.90;17.23;;;;;;;;;;5052500;28;20460;-72
2024/01/01 03:23:46;;;;;;;33.37;17.13;;;;;;;;;;5052447;28;20429;-72
2024/01/01 03:26:13;;;;;;;35.93;17.83;;;;;;;;;;5052420;28;20532;-72
2024/01/01 03:28:39;;;;;;;30.13;16.93;;;;;;;;;;5052429;28;20425;-72
2024/01/01 03:31:06;;;;;;;36.80;18.20;;;;;;;;;;5053682;28;20425;-72
2024/01/01 03:33:33;;;;;;;33.60;17.97;;;;;;;;;;5053105;28;20463;-72
2024/01/01 03:36:00;;;;;;;32.83;17.27;;;;;;;;;;5056573;28;20536;-72
2024/01/01 03:38:44;;;;;;;34.37;17.90;;;;;;;;;;5056734;28;20405;-72
2024/01/01 03:41:12;;;;;;;38.00;17.83;;;;;;;;;;5056091;28;20189;-72
2024/01/01 03:43:38;;;;;;;37.13;17.40;;;;;;;;;;5039996;28;20524;-72
2024/01/01 03:46:05;;;;;;;32.80;17.10;;;;;;;;;;5056278;28;20795;-72
2024/01/01 03:48:32;;;;;;;30.47;16.93;;;;;;;;;;5056256;28;20444;-73
2024/01/01 03:51:16;;;;;;;32.10;16.43;;;;;;;;;;5057730;28;20374;-73
2024/01/01 03:53:42;;;;;;;29.40;15.67;;;;;;;;;;5069408;28;20460;-72
2024/01/01 03:56:09;;;;;;;29.40;16.30;;;;;;;;;;5060029;28;20522;-73
2024/01/01 03:58:36;;;;;;;30.20;15.73;;;;;;;;;;5060113;28;20470;-72
2024/01/01 04:01:04;;;;;;;31.60;16.10;;;;;;;;;;5077573;28;20759;-73
2024/01/01 04:03:48;;;;;;;28.07;14.87;;;;;;;;;;5076240;28;20385;-72
2024/01/01 04:06:14;;;;;;;29.50;15.80;;;;;;;;;;5075980;28;20437;-72
2024/01/01 04:08:41;;;;;;;33.63;16.20;;;;;;;;;;5076210;28;20416;-73
2024/01/01 04:11:08;;;;;;;28.70;16.27;;;;;;;;;;5059195;28;20490;-73
2024/01/01 04:13:35;;;;;;;27.63;15.37;;;;;;;;;;5076874;28;20467;-73
2024/01/01 04:16:02;;;;;;;29.03;15.30;;;;;;;;;;5076483;28;20444;-72
2024/01/01 04:18:28;;;;;;;30.80;15.70;;;;;;;;;;5075944;28;20436;-73
2024/01/01 04:20:55;;;;;;;28.77;15.70;;;;;;;;;;5077748;28;20807;-73
2024/01/01 04:23:22;;;;;;;29.23;15.87;;;;;;;;;;5076612;28;20534;-73
2024/01/01 04:25:48;;;;;;;30.57;16.33;;;;;;;;;;5076463;28;20432;-73
2024/01/01 04:28:15;;;;;;;29.60;16.13;;;;;;;;;;5075750;28;20436;-73
2024/01/01 04:30:59;;;;;;;26.03;15.43;;;;;;;;;;5076400;28;20400;-72
2024/01/01 04:33:26;;;;;;;26.53;14.67;;;;;;;;;;5058627;28;20505;-72
2024/01/01 04:36:10;;;;;;;27.70;15.83;;;;;;;;;;5076236;28;20428;-73
2024/01/01 04:38:37;;;;;;;30.73;16.00;;;;;;;;;;5058595;28;20442;-73
2024/01/01 04:41:03;;;;;;;29.20;15.67;;;;;;;;;;5075326;28;20436;-72
2024/01/01 04:43:30;;;;;;;30.30;15.40;;;;;;;;;;5076166;28;20466;-73
2024/01/01 04:45:57;;;;;;;31.77;15.57;;;;;;;;;;5075867;28;20795;-73
2024/01/01 04:48:23;;;;;;;30.53;16.27;;;;;;;;;;5058539;28;20444;-73
2024/01/01 04:50:50;;;;;;;31.20;17.47;;;;;;;;;;5076716;28;20424;-73
2024/01/01 04:53:17;;;;;;;31.33;16.80;;;;;;;;;;5075007;28;20799;-73
2024/01/01 04:55:43;;;;;;;32.00;16.40;;;;;;;;;;5076028;28;20826;-73
2024/01/01 04:58:10;;;;;;;32.10;15.90;;;;;;;;;;5074868;28;20974;-74
2024/01/01 05:00:37;;;;;;;33.60;16.57;;;;;;;;;;5075742;28;20444;-73
2024/01/01 05:03:04;;;;;;;33.13;16.93;;;;;;;;;;5076103;28;20767;-74
2024/01/01 05:05:30;;;;;;;29.00;16.00;;;;;;;;;;5075683;28;20507;-74
2024/01/01 05:07:57;;;;;;;27.73;15.77;;;;;;;;;;5076090;28;20428;-73
2024/01/01 05:10:24;;;;;;;31.63;16.33;;;;;;;;;;5074556;28;20424;-73
2024/01/01 05:12:50;;;;;;;30.30;16.70;;;;;;;;;;5074959;28;20449;-73
2024/01/01 05:15:17;;;;;;;31.30;16.47;;;;;;;;;;5058065;28;20428;-73
2024/01/01 05:18:01;;;;;;;27.17;15.20;;;;;;;;;;5074570;28;20407;-73
2024/01/01 05:20:27;;;;;;;26.97;15.50;;;;;;;;;;5076114;28;20428;-73
2024/01/01 05:22:54;;;;;;;30.73;16.07;;;;;;;;;;5074171;28;20531;-73
2024/01/01 05:25:21;;;;;;;27.03;14.77;;;;;;;;;;5075968;28;20451;-73
2024/01/01 05:27:47;;;;;;;26.70;15.63;;;;;;;;;;5074578;28;20443;-73
2024/01/01 05:30:14;;;;;;;27.93;16.00;;;;;;;;;;5074570;28;20428;-72
2024/01/01 05:32:41;;;;;;;27.87;15.53;;;;;;;;;;5057817;28;20426;-73
2024/01/01 05:35:08;;;;;;;27.30;15.33;;;;;;;;;;5057846;28;20768;-73
2024/01/01 05:37:54;;;;;;;29.47;16.20;;;;;;;;;;5060597;28;20427;-73
2024/01/01 05:40:21;;;;;;;32.57;16.00;;;;;;;;;;5075854;28;20419;-73
2024/01/01 05:42:48;;;;;;;26.97;15.17;;;;;;;;;;5057577;28;20471;-73
2024/01/01 05:45:14;;;;;;;29.20;16.80;;;;;;;;;;5075307;28;20915;-73
2024/01/01 05:47:41;;;;;;;33.50;17.30;;;;;;;;;;5074317;28;20425;-73
2024/01/01 05:50:09;;;;;;;32.93;17.77;;;;;;;;;;5074039;28;20435;-73
2024/01/01 05:52:35;;;;;;;33.67;18.80;;;;;;;;;;5075367;28;20433;-73
2024/01/01 05:55:02;;;;;;;36.77;19.37;;;;;;;;;;5073535;28;21029;-73
2024/01/01 05:57:29;;;;;;;36.53;19.57;;;;;;;;;;5072606;28;20475;-73
2024/01/01 05:59:55;;;;;;;36.70;18.03;;;;;;;;;;5057238;28;20923;-73
2024/01/01 06:02:22;;;;;;;36.67;18.13;;;;;;;;;;5073717;28;20444;-73
2024/01/01 06:04:49;;;;;;;32.63;17.43;;;;;;;;;;5073441;28;20420;-73
2024/01/01 06:07:15;;;;;;;36.50;18.73;;;;;;;;;;5073608;28;20470;-73
2024/01/01 06:09:42;;;;;;;29.97;17.13;;;;;;;;;;5074526;28;20420;-73
2024/01/01 06:12:08;;;;;;;32.87;17.83;;;;;;;;;;5057832;28;20752;-73
2024/01/01 06:14:35;;;;;;;36.87;18.67;;;;;;;;;;5075426;28;20814;-73
2024/01/01 06:17:02;;;;;;;33.30;17.57;;;;;;;;;;5075302;28;20805;-74
2024/01/01 06:19:29;;;;;;;39.67;18.87;;;;;;;;;;5073147;28;20417;-74
2024/01/01 06:21:56;;;;;;;34.90;17.50;;;;;;;;;;5074109;28;20424;-74
2024/01/01 06:24:23;;;;;;;36.00;18.63;;;;;;;;;;5056910;28;20539;-74
2024/01/01 06:27:07;;;;;;;35.83;18.67;;;;;;;;;;5073296;28;20455;-74
2024/01/01 06:29:34;;;;;;;39.47;19.53;;;;;;;;;;5072813;28;20436;-74
2024/01/01 06:32:00;;;;;;;38.70;18.73;;;;;;;;;;5074499;28;20768;-74
2024/01/01 06:34:27;;;;;;;38.73;18.93;;;;;;;;;;5074227;28;20467;-74
2024/01/01 06:36:54;;;;;;;33.20;17.47;;;;;;;;;;5074648;28;20930;-74
2024/01/01 06:39:37;;;;;;;35.57;18.73;;;;;;;;;;5074116;28;20438;-74
2024/01/01 06:42:04;;;;;;;33.93;17.97;;;;;;;;;;5073111;28;20420;-74
2024/01/01 06:44:48;;;;;;;32.00;17.03;;;;;;;;;;5074211;28;20783;-73
2024/01/01 06:47:14;;;;;;;34.80;17.87;;;;;;;;;;5074199;28;20408;-73
2024/01/01 06:49:41;;;;;;;30.20;16.23;;;;;;;;;;5074141;28;20982;-73
2024/01/01 06:52:08;;;;;;;30.10;16.33;;;;;;;;;;5072871;28;20490;-73
2024/01/01 06:54:37;;;;;;;28.93;14.90;;;;;;;;;;5073775;28;20483;-73
2024/01/01 06:57:05;;;;;;;27.00;14.97;;;;;;;;;;5057132;28;20455;-73
2024/01/01 06:59:31;;;;;;;27.33;14.53;;;;;;;;;;5056320;28;20479;-74
2024/01/01 07:01:58;;;;;;;25.67;15.33;;;;;;;;;;5073857;28;20440;-73
2024/01/01 07:04:25;;;;;;;26.97;15.10;;;;;;;;;;5056235;28;20806;-73
2024/01/01 07:06:52;;;;;;;25.27;14.17;;;;;;;;;;5056206;28;20471;-73
2024/01/01 07:09:19;;;;;;;26.87;14.53;;;;;;;;;;5073391;28;20439;-73
2024/01/01 07:11:45;;;;;;;28.80;16.00;;;;;;;;;;5074082;28;20428;-73
2024/01/01 07:14:12;;;;;;;32.50;15.77;;;;;;;;;;5072681;28;20487;-73
2024/01/01 07:16:39;;;;;;;31.83;15.57;;;;;;;;;;5072798;28;20814;-73
2024/01/01 07:19:23;;;;;;;33.87;16.67;;;;;;;;;;5073812;28;20878;-73
2024/01/01 07:21:49;;;;;;;32.70;16.50;;;;;;;;;;5073077;28;20736;-73
2024/01/01 07:24:16;;;;;;;29.53;15.47;;;;;;;;;;5055927;28;20543;-72
2024/01/01 07:26:43;;;;;;;33.07;16.70;;;;;;;;;;5072794;28;20516;-73
2024/01/01 07:29:09;;;;;;;27.50;15.33;;;;;;;;;;5074069;28;20424;-73
2024/01/01 07:31:36;;;;;;;28.63;14.80;;;;;;;;;;5056013;28;20447;-72
2024/01/01 07:34:03;;;;;;;31.53;15.20;;;;;;;;;;5072519;28;20509;-72
2024/01/01 07:36:30;;;;;;;33.97;15.33;;;;;;;;;;5072372;28;20435;-73
2024/01/01 07:38:57;;;;;;;37.77;16.47;;;;;;;;;;5074055;28;20427;-72
2024/01/01 07:41:23;;;;;;;43.07;17.80;;;;;;;;;;5074685;28;20751;-72
2024/01/01 07:43:50;;;;;;;35.23;17.47;;;;;;;;;;5072573;28;20448;-73
2024/01/01 07:46:34;;;;;;;36.60;17.70;;;;;;;;;;5073589;28;20377;-73
2024/01/01 07:49:03;;;;;;;34.27;17.33;;;;;;;;;;5073499;28;20420;-73
2024/01/01 07:51:30;;;;;;;37.63;17.00;;;;;;;;;;5072539;28;20412;-72
2024/01/01 07:53:57;;;;;;;40.07;18.50;;;;;;;;;;5056605;28;20460;-72
2024/01/01 07:56:24;;;;;;;34.47;18.20;;;;;;;;;;5073245;28;20424;-73
2024/01/01 07:58:53;;;;;;;34.63;17.67;;;;;;;;;;5071804;28;20447;-73
2024/01/01 08:05:25;;;;;;;38.27;17.43;;;;;;;;;;5073473;28;20364;-72
2024/01/01 08:07:53;;;;;;;37.20;18.23;;;;;;;;;;5055899;28;20927;-78
2024/01/01 08:10:20;;;;;;;43.13;18.97;;;;;;;;;;5054602;28;20468;-75
2024/01/01 08:12:47;;;;;;;37.33;19.03;;;;;;;;;;5063088;28;20443;-69
2024/01/01 08:15:15;;;;;;;41.40;18.60;;;;;;;;;;5062557;28;20471;-72
2024/01/01 08:25:48;;;;;;;68.83;23.43;;;;;;;;;;5068647;28;20444;-75
2024/01/01 08:28:15;;;;;;;57.73;19.30;;;;;;;;;;5033837;28;20455;-74
2024/01/01 08:30:43;;;;;;;69.07;20.00;;;;;;;;;;5050162;28;21022;-72
2024/01/01 08:33:10;;;;;;;68.10;18.53;;;;;;;;;;5067648;28;20481;-73
2024/01/01 08:35:37;;;;;;;52.47;19.00;;;;;;;;;;5034138;28;20466;-73
2024/01/01 08:38:03;;;;;;;62.03;19.13;;;;;;;;;;5067696;28;20466;-73
2024/01/01 08:40:31;;;;;;;71.33;18.87;;;;;;;;;;5067717;28;20428;-75
2024/01/01 08:42:57;;;;;;;95.97;20.83;;;;;;;;;;5050613;28;20527;-73
2024/01/01 08:45:24;;;;;;;78.90;20.60;;;;;;;;;;5067362;28;20964;-73
2024/01/01 08:47:51;;;;;;;71.10;18.83;;;;;;;;;;5066281;28;20431;-74
2024/01/01 08:50:19;;;;;;;44.03;18.37;;;;;;;;;;5067003;28;21001;-74
2024/01/01 08:52:46;;;;;;;68.27;20.13;;;;;;;;;;5030694;28;20437;-75
2024/01/01 08:55:12;;;;;;;87.10;21.93;;;;;;;;;;5066002;28;20464;-74
2024/01/01 08:57:41;;;;;;;105.47;21.80;;;;;;;;;;5066078;28;22345;-74
2024/01/01 09:00:08;;;;;;;101.80;22.77;;;;;;;;;;5067479;28;20960;-74
2024/01/01 09:02:35;;;;;;;118.97;23.43;;;;;;;;;;5066911;28;20444;-76
2024/01/01 09:05:02;;;;;;;112.07;24.50;;;;;;;;;;5050137;28;20456;-72
2024/01/01 09:07:29;;;;;;;66.60;21.80;;;;;;;;;;5050413;28;20454;-71
2024/01/01 09:09:58;;;;;;;68.70;21.83;;;;;;;;;;5038503;28;20476;-73
2024/01/01 09:12:25;;;;;;;82.80;22.63;;;;;;;;;;5049822;28;20432;-72
2024/01/01 09:14:52;;;;;;;82.27;22.50;;;;;;;;;;5048943;28;20468;-71
2024/01/01 09:17:19;;;;;;;110.03;23.37;;;;;;;;;;5066245;28;20471;-77
2024/01/01 09:19:46;;;;;;;78.93;24.13;;;;;;;;;;5049576;28;20925;-76
2024/01/01 09:22:13;;;;;;;75.27;27.60;;;;;;;;;;5049981;28;20428;-75
2024/01/01 09:24:41;;;;;;;92.90;24.47;;;;;;;;;;5067072;28;20445;-75
2024/01/01 09:27:07;;;;;;;92.23;23.53;;;;;;;;;;5066627;28;20440;-75
2024/01/01 09:29:35;;;;;;;64.57;22.00;;;;;;;;;;5066751;28;20436;-77
2024/01/01 09:32:01;;;;;;;77.13;23.13;;;;;;;;;;5067640;28;20440;-69
2024/01/01 09:34:29;;;;;;;57.60;21.20;;;;;;;;;;5065618;28;20468;-75
2024/01/01 09:36:56;;;;;;;97.23;23.47;;;;;;;;;;5065733;28;20436;-77
2024/01/01 09:39:29;;;;;;;107.37;23.60;;;;;;;;;;5050677;28;20910;-78
2024/01/01 09:41:56;;;;;;;82.37;24.23;;;;;;;;;;5065519;28;20515;-69
2024/01/01 09:44:23;;;;;;;89.03;24.30;;;;;;;;;;5049119;28;20428;-77
2024/01/01 09:46:51;;;;;;;91.97;25.30;;;;;;;;;;5048443;28;20456;-75
2024/01/01 09:49:18;;;;;;;106.17;26.53;;;;;;;;;;5048732;28;20444;-77
2024/01/01 09:51:45;;;;;;;69.03;23.93;;;;;;;;;;5066381;28;20413;-77
2024/01/01 09:54:12;;;;;;;62.87;23.67;;;;;;;;;;5066294;28;20433;-74
2024/01/01 09:56:38;;;;;;;66.97;23.33;;;;;;;;;;5066215;28;20424;-74
2024/01/01 09:59:05;;;;;;;71.47;24.10;;;;;;;;;;5066220;28;20456;-74
2024/01/01 10:01:33;;;;;;;92.10;30.37;;;;;;;;;;5064923;28;20436;-73
2024/01/01 10:04:02;;;;;;;75.50;27.67;;;;;;;;;;5048522;28;20779;-72
2024/01/01 10:06:29;;;;;;;65.97;27.07;;;;;;;;;;5031803;28;20931;-72
2024/01/01 10:09:07;;;;;;;93.10;27.87;;;;;;;;;;5065168;28;20432;-71
2024/01/01 10:11:38;;;;;;;76.43;26.53;;;;;;;;;;5064220;28;20448;-73
2024/01/01 10:14:06;;;;;;;66.70;25.47;;;;;;;;;;5031424;28;20519;-73
2024/01/01 10:16:35;;;;;;;79.87;27.57;;;;;;;;;;5064396;28;20436;-71
2024/01/01 10:19:10;;;;;;;98.90;26.63;;;;;;;;;;5049045;28;20502;-72
2024/01/01 10:21:38;;;;;;;69.57;25.50;;;;;;;;;;5047914;28;20470;-73
2024/01/01 10:24:23;;;;;;;67.23;25.70;;;;;;;;;;5036001;28;20969;-73
2024/01/01 10:26:58;;;;;;;124.80;27.93;;;;;;;;;;5064429;28;20509;-72
2024/01/01 10:29:26;;;;;;;59.97;26.80;;;;;;;;;;5064558;28;20433;-72
2024/01/01 10:31:53;;;;;;;59.63;24.43;;;;;;;;;;5064137;28;20436;-73
2024/01/01 10:34:21;;;;;;;67.83;25.43;;;;;;;;;;5047570;28;20429;-73
2024/01/01 10:36:48;;;;;;;67.80;27.00;;;;;;;;;;5031079;28;20498;-73
2024/01/01 10:39:15;;;;;;;69.47;26.70;;;;;;;;;;5047287;28;20463;-73
2024/01/01 10:41:42;;;;;;;66.83;25.20;;;;;;;;;;5063761;28;20429;-73
2024/01/01 10:44:09;;;;;;;56.10;25.33;;;;;;;;;;5063464;28;20420;-73
2024/01/01 10:46:39;;;;;;;83.53;26.13;;;;;;;;;;5063738;28;20440;-73
2024/01/01 10:49:07;;;;;;;64.83;25.67;;;;;;;;;;5047724;28;20194;-74
2024/01/01 10:51:43;;;;;;;65.43;24.73;;;;;;;;;;5047464;28;20424;-71
2024/01/01 10:54:29;;;;;;;64.87;26.83;;;;;;;;;;5063993;28;20836;-71
2024/01/01 10:56:56;;;;;;;63.97;26.57;;;;;;;;;;5063232;28;20448;-72
2024/01/01 10:59:24;;;;;;;66.80;26.97;;;;;;;;;;5065389;28;20432;-72
2024/01/01 11:01:51;;;;;;;66.13;25.40;;;;;;;;;;5064002;28;20420;-73
2024/01/01 11:04:21;;;;;;;75.03;25.87;;;;;;;;;;5047322;28;20185;-71
2024/01/01 11:06:48;;;;;;;63.73;25.20;;;;;;;;;;5064567;28;20428;-72
2024/01/01 11:09:18;;;;;;;61.60;25.67;;;;;;;;;;5035420;28;20428;-72
2024/01/01 11:12:04;;;;;;;74.70;26.53;;;;;;;;;;5063196;28;20420;-70
2024/01/01 11:14:31;;;;;;;67.50;26.27;;;;;;;;;;5063771;28;20996;-74
2024/01/01 11:17:01;;;;;;;68.80;28.03;;;;;;;;;;5064727;28;20460;-74
2024/01/01 11:19:41;;;;;;;68.87;28.13;;;;;;;;;;5030877;28;20535;-73
2024/01/01 11:22:18;;;;;;;83.30;28.13;;;;;;;;;;5031050;28;20455;-75
2024/01/01 11:24:48;;;;;;;66.43;27.80;;;;;;;;;;5064737;28;20456;-74
2024/01/01 11:27:26;;;;;;;66.40;26.97;;;;;;;;;;5046819;28;20444;-74
2024/01/01 11:29:53;;;;;;;68.43;27.73;;;;;;;;;;5046556;28;20440;-74
2024/01/01 11:32:20;;;;;;;68.37;27.30;;;;;;;;;;5062909;28;20460;-74
2024/01/01 11:35:05;;;;;;;73.13;28.00;;;;;;;;;;5029965;28;20558;-76
2024/01/01 11:37:34;;;;;;;63.40;27.27;;;;;;;;;;5062126;28;20455;-74
2024/01/01 11:40:01;;;;;;;71.27;28.80;;;;;;;;;;5062554;28;20931;-76
2024/01/01 11:42:28;;;;;;;74.67;28.53;;;;;;;;;;5046329;28;20428;-73
2024/01/01 11:45:05;;;;;;;81.37;28.73;;;;;;;;;;5058782;28;20982;-70
2024/01/01 11:47:32;;;;;;;76.47;29.00;;;;;;;;;;5041708;28;20451;-71
2024/01/01 11:50:02;;;;;;;84.30;28.23;;;;;;;;;;5044131;28;20908;-70
2024/01/01 11:55:40;;;;;;;74.03;30.77;;;;;;;;;;5060940;28;20954;-70
2024/01/01 12:02:16;;;;;;;73.53;27.80;;;;;;;;;;5063572;28;21064;-70
2024/01/01 12:04:44;;;;;;;77.33;28.97;;;;;;;;;;5049311;28;20497;-70
2024/01/01 12:07:24;;;;;;;83.13;30.43;;;;;;;;;;5067528;28;20942;-71
2024/01/01 12:10:07;;;;;;;81.13;29.97;;;;;;;;;;5037792;28;20471;-71
2024/01/01 12:12:35;;;;;;;78.33;29.27;;;;;;;;;;5066789;28;20432;-71
2024/01/01 12:15:12;;;;;;;86.03;30.37;;;;;;;;;;5049745;28;20560;-70
2024/01/01 12:17:40;;;;;;;74.43;29.53;;;;;;;;;;5049943;28;20424;-74
2024/01/01 12:20:09;;;;;;;76.47;30.10;;;;;;;;;;5033522;28;20446;-74
2024/01/01 12:22:37;;;;;;;74.60;29.43;;;;;;;;;;5066416;28;20583;-71
2024/01/01 12:25:04;;;;;;;71.33;29.40;;;;;;;;;;5033380;28;20440;-76
2024/01/01 12:27:31;;;;;;;72.20;29.43;;;;;;;;;;5049590;28;20436;-78
2024/01/01 12:29:59;;;;;;;73.47;29.03;;;;;;;;;;5050066;28;20523;-78
2024/01/01 12:32:26;;;;;;;97.27;31.27;;;;;;;;;;5049918;28;20436;-78
2024/01/01 12:34:54;;;;;;;73.37;29.90;;;;;;;;;;5050282;28;20958;-77
2024/01/01 12:37:21;;;;;;;75.63;29.33;;;;;;;;;;5048267;28;20444;-77
2024/01/01 12:39:51;;;;;;;69.80;30.03;;;;;;;;;;5050024;28;20409;-77
2024/01/01 12:42:18;;;;;;;71.73;29.90;;;;;;;;;;5068010;28;20436;-76
2024/01/01 12:44:45;;;;;;;74.33;30.30;;;;;;;;;;5050001;28;20425;-78
2024/01/01 12:47:13;;;;;;;77.93;31.17;;;;;;;;;;5049685;28;20441;-77
2024/01/01 12:50:14;;;;;;;72.37;30.13;;;;;;;;;;5065201;28;20428;-77
2024/01/01 12:52:43;;;;;;;68.73;29.17;;;;;;;;;;5050219;28;20440;-77
2024/01/01 12:59:10;;;;;;;75.20;28.90;;;;;;;;;;5068154;28;20406;-77
2024/01/01 13:01:38;;;;;;;82.33;32.37;;;;;;;;;;5065360;28;20522;-79
2024/01/01 13:04:05;;;;;;;83.50;31.47;;;;;;;;;;5048098;28;20195;-77
2024/01/01 13:06:33;;;;;;;83.43;31.67;;;;;;;;;;5064557;28;20190;-75
2024/01/01 13:09:05;;;;;;;79.20;32.80;;;;;;;;;;5064945;28;20194;-76
2024/01/01 13:11:33;;;;;;;88.37;35.27;;;;;;;;;;5055193;28;20471;-79
2024/01/01 13:14:00;;;;;;;88.03;34.63;;;;;;;;;;5064956;28;20413;-76
2024/01/01 13:16:27;;;;;;;98.17;37.37;;;;;;;;;;5064583;28;20563;-75
2024/01/01 13:18:54;;;;;;;95.47;36.43;;;;;;;;;;5048822;28;20775;-76
2024/01/01 13:25:22;;;;;;;96.77;35.00;;;;;;;;;;5066595;28;20427;-76
2024/01/01 13:27:51;;;;;;;90.57;34.17;;;;;;;;;;5064501;28;20432;-73
2024/01/01 13:33:51;;;;;;;94.70;35.43;;;;;;;;;;5057695;28;20425;-72
2024/01/01 13:36:19;;;;;;;93.67;34.93;;;;;;;;;;5033092;28;20468;-74
2024/01/01 13:43:11;;;;;;;103.53;37.07;;;;;;;;;;5066645;28;20454;-78
2024/01/01 13:45:38;;;;;;;106.70;39.17;;;;;;;;;;5064797;28;20440;-76
2024/01/01 13:48:07;;;;;;;115.83;37.83;;;;;;;;;;5049277;28;20927;-76
2024/01/01 13:50:35;;;;;;;116.37;39.43;;;;;;;;;;5064742;28;20515;-77
2024/01/01 13:53:05;;;;;;;118.93;41.30;;;;;;;;;;5048409;28;20417;-79
2024/01/01 13:55:33;;;;;;;110.17;38.80;;;;;;;;;;5034720;28;20488;-76
2024/01/01 13:58:00;;;;;;;117.83;38.97;;;;;;;;;;5044730;28;20534;-75
2024/01/01 14:00:27;;;;;;;110.50;39.23;;;;;;;;;;5028012;28;20573;-74
2024/01/01 14:02:55;;;;;;;106.80;38.13;;;;;;;;;;5046120;28;20844;-76
2024/01/01 14:05:22;;;;;;;108.23;37.33;;;;;;;;;;5011643;28;20216;-75
2024/01/01 14:07:49;;;;;;;105.97;38.07;;;;;;;;;;5012788;28;20274;-77
2024/01/01 14:10:18;;;;;;;109.90;40.30;;;;;;;;;;5036686;28;20465;-75
2024/01/01 14:12:48;;;;;;;111.13;40.70;;;;;;;;;;5047810;28;20194;-74
2024/01/01 14:15:28;;;;;;;111.93;40.10;;;;;;;;;;5066646;28;20465;-73
2024/01/01 14:17:58;;;;;;;108.13;39.80;;;;;;;;;;5037617;28;20198;-76
2024/01/01 14:20:26;;;;;;;100.77;38.13;;;;;;;;;;5053923;28;20237;-77
2024/01/01 14:22:56;;;;;;;114.63;40.23;;;;;;;;;;5051656;28;20433;-73
2024/01/01 14:25:27;;;;;;;125.00;42.70;;;;;;;;;;5058215;28;20214;-76
2024/01/01 14:27:57;;;;;;;114.00;40.13;;;;;;;;;;5056404;28;20603;-76
2024/01/01 14:30:26;;;;;;;111.37;38.67;;;;;;;;;;5072461;28;20932;-73
2024/01/01 14:33:04;;;;;;;111.90;38.90;;;;;;;;;;5057542;28;20440;-75
2024/01/01 14:35:40;;;;;;;99.93;37.87;;;;;;;;;;5023131;28;20468;-75
2024/01/01 14:38:09;;;;;;;111.00;40.10;;;;;;;;;;5033967;28;20425;-77
2024/01/01 14:40:37;;;;;;;105.10;39.33;;;;;;;;;;5032358;28;20627;-75
2024/01/01 14:43:05;;;;;;;112.47;39.37;;;;;;;;;;5047560;28;20455;-75
2024/01/01 14:45:34;;;;;;;113.73;39.33;;;;;;;;;;5055367;28;20595;-69
2024/01/01 14:48:02;;;;;;;106.10;38.40;;;;;;;;;;5046928;28;20197;-71
2024/01/01 14:50:34;;;;;;;107.67;40.87;;;;;;;;;;5047115;28;20461;-72
2024/01/01 14:53:01;;;;;;;121.63;43.00;;;;;;;;;;5065356;28;20185;-72
2024/01/01 14:55:29;;;;;;;101.27;40.00;;;;;;;;;;5040838;28;20453;-73
2024/01/01 15:05:56;;;;;;;91.87;35.97;;;;;;;;;;5044986;28;20184;-75
2024/01/01 15:08:23;;;;;;;111.10;41.33;;;;;;;;;;5043188;28;20260;-73
2024/01/01 15:10:58;;;;;;;108.50;38.43;;;;;;;;;;5033839;28;20269;-74
2024/01/01 15:13:25;;;;;;;103.37;38.13;;;;;;;;;;5027705;28;20199;-76
2024/01/01 15:15:54;;;;;;;96.23;37.67;;;;;;;;;;5026868;28;20211;-75
2024/01/01 15:18:22;;;;;;;110.90;37.27;;;;;;;;;;5042993;28;20209;-76
2024/01/01 15:21:07;;;;;;;110.57;38.43;;;;;;;;;;5046049;28;20622;-75
2024/01/01 15:23:34;;;;;;;117.10;38.43;;;;;;;;;;5045982;28;20432;-71
2024/01/01 15:26:03;;;;;;;124.20;42.43;;;;;;;;;;5047810;28;20835;-73
2024/01/01 15:28:33;;;;;;;108.70;40.43;;;;;;;;;;5045284;28;20591;-71
2024/01/01 15:31:00;;;;;;;110.43;40.73;;;;;;;;;;5050628;28;20422;-74
2024/01/01 15:33:28;;;;;;;107.57;41.03;;;;;;;;;;5030458;28;20242;-74
2024/01/01 15:35:55;;;;;;;112.13;40.03;;;;;;;;;;5052928;28;20465;-74
2024/01/01 15:38:23;;;;;;;106.23;39.10;;;;;;;;;;5029877;28;20434;-73
2024/01/01 15:40:50;;;;;;;99.17;37.03;;;;;;;;;;5031173;28;20426;-72
2024/01/01 15:43:19;;;;;;;105.43;38.73;;;;;;;;;;5033753;28;20191;-73